createdAt,value
2018-11-28T06:38:40.594Z,13.20
2018-11-28T06:39:40.760Z,14.80
2018-11-28T06:40:40.910Z,15.60
2018-11-28T06:41:41.087Z,15.80
2018-11-28T06:42:41.209Z,15.20
2018-11-28T06:43:41.380Z,15.70
2018-11-28T06:44:41.545Z,15.10
2018-11-28T06:45:41.704Z,14.90
2018-11-28T06:46:41.814Z,15.60
2018-11-28T06:47:41.965Z,16.30
2018-11-28T06:50:24.463Z,16.40
2018-11-28T06:51:24.594Z,15.70
2018-11-28T06:52:24.755Z,16.20
2018-11-28T06:53:24.918Z,16.60
2018-11-28T06:54:25.072Z,16.30
2018-11-28T06:55:25.229Z,16.10
2018-11-28T06:56:25.389Z,16.10
2018-11-28T06:57:25.547Z,16.90
2018-11-28T06:58:25.759Z,16.10
2018-11-28T07:00:58.208Z,15.80
2018-11-28T07:01:58.374Z,16.20
2018-11-28T07:02:58.536Z,15.50
2018-11-28T07:03:58.696Z,16.80
2018-11-28T07:04:58.871Z,16.30
2018-11-28T07:05:59.012Z,15.20
2018-11-28T07:06:59.169Z,15.70
2018-11-28T07:07:59.325Z,15.60
2018-11-28T07:08:59.480Z,14.90
2018-11-28T07:09:59.640Z,15.40
2018-11-28T07:10:59.802Z,14.80
2018-11-28T07:11:59.973Z,15.00
2018-11-28T07:13:00.120Z,14.20
2018-11-28T07:14:00.279Z,13.90
2018-11-28T07:15:00.437Z,15.20
2018-11-28T07:17:43.217Z,14.50
2018-11-28T07:18:43.390Z,14.40
2018-11-28T07:19:44.195Z,15.20
2018-11-28T07:20:43.701Z,15.00
2018-11-28T07:21:43.856Z,14.40
2018-11-28T07:22:44.013Z,14.10
2018-11-28T07:23:44.170Z,14.80
2018-11-28T07:24:44.339Z,14.20
2018-11-28T07:25:44.497Z,14.50
2018-11-28T07:26:44.658Z,15.80
2018-11-28T07:27:45.531Z,14.50
2018-11-28T07:28:44.980Z,14.20
2018-11-28T07:29:45.145Z,14.90
2018-11-28T07:30:45.319Z,14.50
2018-11-28T07:31:45.464Z,14.30
2018-11-28T07:45:46.459Z,14.60
2018-11-28T07:46:46.568Z,14.50
2018-11-28T07:47:46.730Z,13.90
2018-11-28T07:48:46.893Z,14.50
2018-11-28T07:49:47.050Z,14.30
2018-11-28T07:50:47.558Z,15.20
